CWD2 weather

Alta Heliport
Collingwood, Ontario, Canada

Public forecast

Using degrees Celsius for public forecast. Weather courtesy of forecast.io.

METAR (pilot weather report)

Closest report is CFB Borden, 24.5 nm (45.3 km) SE. Retrieved 2019/05/24 18:09 UTC (44 minutes ago):

CYBN 241809Z AUTO 36007KT 330V050 9SM BKN026 17/10 A3012

TAF (pilot weather forecast)

Closest forecast is CFB Borden, 24.5 nm (45.3 km) SE. Retrieved 2019/05/24 18:33 UTC (20 minutes ago):

TAF TAF CYBN 241730Z 2418/2506 36010KT P6SM FEW020 BKN240 TEMPO 2418/2506 BKN020 OVC240 BECMG 2422/2424 VRB03KT RMK FCST BASED ON AUTO OBS. NXT FCST BY 250000Z